createdAt,value
2017-03-24T00:01:06.078Z,9.75
2017-03-24T00:02:19.513Z,9.72
2017-03-24T00:03:33.158Z,9.69
2017-03-24T00:04:46.880Z,9.66
2017-03-24T00:06:00.993Z,9.66
2017-03-24T00:07:15.185Z,9.66
2017-03-24T00:08:28.713Z,9.65
2017-03-24T00:09:45.383Z,9.66
2017-03-24T00:10:59.558Z,9.67
2017-03-24T00:12:13.382Z,9.67
2017-03-24T00:13:27.256Z,9.66
2017-03-24T00:14:40.859Z,9.67
2017-03-24T00:15:54.502Z,9.66
2017-03-24T00:17:07.998Z,9.68
2017-03-24T00:18:21.941Z,9.7
2017-03-24T00:19:35.389Z,9.73
2017-03-24T00:20:48.879Z,9.75
2017-03-24T00:22:02.385Z,9.77
2017-03-24T00:23:15.897Z,9.77
2017-03-24T00:24:29.526Z,9.8
2017-03-24T00:25:43.399Z,9.81
2017-03-24T00:26:57.580Z,9.82
2017-03-24T00:28:11.548Z,9.82
2017-03-24T00:29:25.552Z,9.82
2017-03-24T00:30:39.414Z,9.82
2017-03-24T00:31:53.050Z,9.84
2017-03-24T00:33:06.851Z,9.87
2017-03-24T00:34:20.245Z,9.88
2017-03-24T00:35:33.758Z,9.88
2017-03-24T00:36:48.032Z,9.86
2017-03-24T00:38:01.580Z,9.89
2017-03-24T00:39:15.668Z,9.9
2017-03-24T00:40:29.507Z,9.9
2017-03-24T00:41:43.110Z,9.9
2017-03-24T00:42:56.911Z,9.92
2017-03-24T00:44:10.760Z,9.94
2017-03-24T00:45:24.559Z,9.95
2017-03-24T00:46:38.329Z,9.97
2017-03-24T00:47:52.159Z,10
2017-03-24T00:49:06.201Z,10.03
2017-03-24T00:50:20.084Z,10.07
2017-03-24T00:51:33.504Z,10.1
2017-03-24T00:52:46.971Z,10.1
2017-03-24T00:54:00.479Z,10.11
2017-03-24T00:55:14.535Z,10.14
2017-03-24T00:56:28.151Z,10.16
2017-03-24T00:57:41.768Z,10.19
2017-03-24T00:58:55.833Z,10.19
2017-03-24T01:00:09.403Z,10.2
2017-03-24T01:01:23.106Z,10.21
2017-03-24T01:02:36.972Z,10.22
2017-03-24T01:03:50.455Z,10.22
2017-03-24T01:05:04.015Z,10.23
2017-03-24T01:06:17.418Z,10.24
2017-03-24T01:07:31.919Z,10.22
2017-03-24T01:08:45.945Z,10.22
2017-03-24T01:09:59.768Z,10.23
2017-03-24T01:11:13.491Z,10.21
2017-03-24T01:12:27.011Z,10.22
2017-03-24T01:13:40.747Z,10.22
2017-03-24T01:14:54.309Z,10.22
2017-03-24T01:16:07.696Z,10.22
2017-03-24T01:17:21.215Z,10.24
2017-03-24T01:18:34.713Z,10.23
2017-03-24T01:19:49.176Z,10.22
2017-03-24T01:21:02.635Z,10.2
2017-03-24T01:22:16.142Z,10.22
2017-03-24T01:23:29.662Z,10.21
2017-03-24T01:24:43.170Z,10.2
2017-03-24T01:25:59.297Z,10.21
2017-03-24T01:27:13.413Z,10.22
2017-03-24T01:28:27.518Z,10.25
2017-03-24T01:29:40.996Z,10.27
2017-03-24T01:30:54.310Z,10.26
2017-03-24T01:32:08.462Z,10.24
2017-03-24T01:33:21.797Z,10.23
2017-03-24T01:34:35.911Z,10.25
2017-03-24T01:35:49.383Z,10.25
2017-03-24T01:37:02.926Z,10.29
2017-03-24T01:38:16.791Z,10.34
2017-03-24T01:39:30.493Z,10.4
2017-03-24T01:40:44.244Z,10.45
2017-03-24T01:41:57.762Z,10.49
2017-03-24T01:43:11.362Z,10.5
2017-03-24T01:44:25.129Z,10.51
2017-03-24T01:45:38.707Z,10.53
2017-03-24T01:46:52.375Z,10.54
2017-03-24T01:48:05.776Z,10.53
2017-03-24T01:49:19.445Z,10.53
2017-03-24T01:50:33.135Z,10.53
2017-03-24T01:51:46.561Z,10.53
2017-03-24T01:52:59.999Z,10.5
2017-03-24T01:54:13.949Z,10.5
2017-03-24T01:55:27.834Z,10.47
2017-03-24T01:56:41.736Z,10.46
2017-03-24T01:57:55.159Z,10.45
2017-03-24T01:59:09.039Z,10.42
2017-03-24T02:00:22.432Z,10.39
2017-03-24T02:01:36.145Z,10.4
2017-03-24T02:02:50.157Z,10.43
2017-03-24T02:04:03.872Z,10.45
2017-03-24T02:05:17.248Z,10.48
2017-03-24T02:06:30.702Z,10.51
2017-03-24T02:07:44.068Z,10.55
2017-03-24T02:08:58.160Z,10.58
2017-03-24T02:10:11.960Z,10.6
2017-03-24T02:11:25.679Z,10.61
2017-03-24T02:12:39.607Z,10.59
2017-03-24T02:13:54.531Z,10.56
2017-03-24T02:15:09.033Z,10.54
2017-03-24T02:16:22.663Z,10.54
2017-03-24T02:17:36.348Z,10.54
2017-03-24T02:18:50.851Z,10.54
2017-03-24T02:20:04.479Z,10.57
2017-03-24T02:21:18.558Z,10.6
2017-03-24T02:22:32.074Z,10.64
2017-03-24T02:23:45.596Z,10.64
2017-03-24T02:24:59.092Z,10.64
2017-03-24T02:26:12.833Z,10.65
2017-03-24T02:27:26.847Z,10.66
2017-03-24T02:28:40.348Z,10.67
2017-03-24T02:29:53.748Z,10.69
2017-03-24T02:31:07.249Z,10.7
2017-03-24T02:32:20.576Z,10.71
2017-03-24T02:33:35.047Z,10.72
2017-03-24T02:34:48.383Z,10.73
2017-03-24T02:36:01.839Z,10.7
2017-03-24T02:37:15.384Z,10.66
2017-03-24T02:38:28.868Z,10.66
2017-03-24T02:39:42.962Z,10.65
2017-03-24T02:40:56.392Z,10.64
2017-03-24T02:42:11.859Z,10.65
2017-03-24T02:43:25.316Z,10.66
2017-03-24T02:44:38.864Z,10.66
2017-03-24T02:45:52.589Z,10.65
2017-03-24T02:47:06.076Z,10.61
2017-03-24T02:48:19.556Z,10.57
2017-03-24T02:49:32.963Z,10.56
2017-03-24T02:50:46.685Z,10.54
2017-03-24T02:52:00.289Z,10.53
2017-03-24T02:53:13.696Z,10.52
2017-03-24T02:54:27.757Z,10.5
2017-03-24T02:55:41.325Z,10.51
2017-03-24T02:56:54.675Z,10.54
2017-03-24T02:58:08.403Z,10.54
2017-03-24T02:59:21.793Z,10.53
2017-03-24T03:00:35.517Z,10.54
2017-03-24T03:01:48.854Z,10.56
2017-03-24T03:03:02.338Z,10.56
2017-03-24T03:04:15.949Z,10.54
2017-03-24T03:05:29.488Z,10.55
2017-03-24T03:06:42.853Z,10.56
2017-03-24T03:07:56.762Z,10.54
2017-03-24T03:09:10.419Z,10.51
2017-03-24T03:10:24.481Z,10.51
2017-03-24T03:11:38.446Z,10.52
2017-03-24T03:12:51.935Z,10.51
2017-03-24T03:14:05.612Z,10.49
2017-03-24T03:15:19.484Z,10.48
2017-03-24T03:16:33.498Z,10.47
2017-03-24T03:17:47.085Z,10.46
2017-03-24T03:19:00.782Z,10.48
2017-03-24T03:20:14.297Z,10.46
2017-03-24T03:21:28.097Z,10.48
2017-03-24T03:22:41.693Z,10.47
2017-03-24T03:23:55.705Z,10.47
2017-03-24T03:25:09.299Z,10.46
2017-03-24T03:26:22.697Z,10.45
2017-03-24T03:27:36.220Z,10.44
2017-03-24T03:28:49.869Z,10.44
2017-03-24T03:30:03.795Z,10.43
2017-03-24T03:31:17.325Z,10.42
2017-03-24T03:32:31.105Z,10.4
2017-03-24T03:33:44.851Z,10.41
2017-03-24T03:34:58.669Z,10.43
2017-03-24T03:36:12.099Z,10.44
2017-03-24T03:37:34.799Z,10.42
2017-03-24T03:38:48.247Z,10.42
2017-03-24T03:40:01.769Z,10.42
2017-03-24T03:41:15.406Z,10.45
2017-03-24T03:42:29.240Z,10.45
2017-03-24T03:43:43.051Z,10.44
2017-03-24T03:44:56.527Z,10.44
2017-03-24T03:46:09.891Z,10.46
2017-03-24T03:47:23.807Z,10.47
2017-03-24T03:48:37.129Z,10.5
2017-03-24T03:49:50.796Z,10.53
2017-03-24T03:51:04.167Z,10.53
2017-03-24T03:52:17.701Z,10.51
2017-03-24T03:53:31.126Z,10.51
2017-03-24T03:54:44.751Z,10.49
2017-03-24T03:55:58.145Z,10.45
2017-03-24T03:57:11.687Z,10.44
2017-03-24T03:58:27.307Z,10.43
2017-03-24T03:59:41.367Z,10.43
2017-03-24T04:00:54.832Z,10.42
2017-03-24T04:02:08.372Z,10.42
2017-03-24T04:03:21.818Z,10.38
2017-03-24T04:04:36.032Z,10.34
2017-03-24T04:05:50.344Z,10.32
2017-03-24T04:07:03.857Z,10.3
2017-03-24T04:08:17.632Z,10.29
2017-03-24T04:09:31.244Z,10.27
2017-03-24T04:10:44.652Z,10.26
2017-03-24T04:11:58.165Z,10.27
2017-03-24T04:13:12.183Z,10.26
2017-03-24T04:14:42.915Z,10.26
2017-03-24T04:15:56.592Z,10.24
2017-03-24T04:17:09.927Z,10.25
2017-03-24T04:18:24.061Z,10.25
2017-03-24T04:19:37.366Z,10.26
2017-03-24T04:20:50.773Z,10.29
2017-03-24T04:22:04.371Z,10.31
2017-03-24T04:24:09.884Z,10.33
2017-03-24T04:25:23.409Z,10.33
2017-03-24T04:26:37.220Z,10.35
2017-03-24T04:27:51.032Z,10.38
2017-03-24T04:29:05.763Z,10.38
2017-03-24T04:30:19.441Z,10.36
2017-03-24T04:31:32.811Z,10.35
2017-03-24T04:32:46.765Z,10.35
2017-03-24T04:34:00.180Z,10.35
2017-03-24T04:35:13.857Z,10.35
2017-03-24T04:36:27.260Z,10.37
2017-03-24T04:37:40.789Z,10.39
2017-03-24T04:38:54.137Z,10.39
2017-03-24T04:40:07.776Z,10.38
2017-03-24T04:41:21.139Z,10.35
2017-03-24T04:42:34.856Z,10.36
2017-03-24T04:43:48.689Z,10.38
2017-03-24T04:45:02.365Z,10.37
2017-03-24T04:46:15.852Z,10.34
2017-03-24T04:47:29.391Z,10.31
2017-03-24T04:48:43.318Z,10.3
2017-03-24T04:49:56.873Z,10.31
2017-03-24T04:51:10.256Z,10.28
2017-03-24T04:52:23.690Z,10.29
2017-03-24T04:53:37.110Z,10.32
2017-03-24T04:54:50.649Z,10.35
2017-03-24T04:56:04.443Z,10.39
2017-03-24T04:57:17.860Z,10.39
2017-03-24T04:58:31.470Z,10.38
2017-03-24T04:59:45.061Z,10.37
2017-03-24T05:00:58.468Z,10.38
2017-03-24T05:02:12.033Z,10.38
2017-03-24T05:03:25.419Z,10.35
2017-03-24T05:04:39.882Z,10.35
2017-03-24T05:05:53.530Z,10.35
2017-03-24T05:07:07.003Z,10.39
2017-03-24T05:08:20.712Z,10.39
2017-03-24T05:09:34.283Z,10.37
2017-03-24T05:10:47.674Z,10.34
2017-03-24T05:12:01.416Z,10.32
2017-03-24T05:13:15.117Z,10.33
2017-03-24T05:14:28.588Z,10.34
2017-03-24T05:15:44.279Z,10.35
2017-03-24T05:16:58.848Z,10.36
2017-03-24T05:18:12.636Z,10.36
2017-03-24T05:19:26.274Z,10.35
2017-03-24T05:20:40.551Z,10.35
2017-03-24T05:21:53.996Z,10.34
2017-03-24T05:23:07.765Z,10.34
2017-03-24T05:24:21.496Z,10.35
2017-03-24T05:25:35.519Z,10.35
2017-03-24T05:26:49.040Z,10.32
2017-03-24T05:28:03.686Z,10.32
2017-03-24T05:29:17.476Z,10.32
2017-03-24T05:30:30.902Z,10.33
2017-03-24T05:31:45.055Z,10.32
2017-03-24T05:32:58.779Z,10.31
2017-03-24T05:34:12.522Z,10.34
2017-03-24T05:35:25.897Z,10.39
2017-03-24T05:36:39.376Z,10.42
2017-03-24T05:37:53.158Z,10.43
2017-03-24T05:39:06.703Z,10.4
2017-03-24T05:40:20.223Z,10.4
2017-03-24T05:41:34.099Z,10.37
2017-03-24T05:42:47.511Z,10.33
2017-03-24T05:44:01.103Z,10.31
2017-03-24T05:45:14.845Z,10.29
2017-03-24T05:46:28.349Z,10.28
2017-03-24T05:47:41.728Z,10.25
2017-03-24T05:48:55.323Z,10.24
2017-03-24T05:50:08.912Z,10.23
2017-03-24T05:51:22.416Z,10.22
2017-03-24T05:52:35.768Z,10.2
2017-03-24T05:53:49.802Z,10.17
2017-03-24T05:55:03.206Z,10.14
2017-03-24T05:56:16.772Z,10.13
2017-03-24T05:57:30.182Z,10.13
2017-03-24T05:58:44.468Z,10.12
2017-03-24T05:59:58.517Z,10.12
2017-03-24T06:01:11.964Z,10.1
2017-03-24T06:02:25.321Z,10.09
2017-03-24T06:03:38.904Z,10.14
2017-03-24T06:04:53.682Z,10.2
2017-03-24T06:06:08.028Z,10.26
2017-03-24T06:07:21.848Z,10.28
2017-03-24T06:08:36.118Z,10.32
2017-03-24T06:09:49.874Z,10.32
2017-03-24T06:11:03.747Z,10.31
2017-03-24T06:12:17.434Z,10.29
2017-03-24T06:13:31.195Z,10.28
2017-03-24T06:14:44.992Z,10.27
2017-03-24T06:15:58.626Z,10.28
2017-03-24T06:17:12.332Z,10.27
2017-03-24T06:18:25.976Z,10.28
2017-03-24T06:19:42.521Z,10.29
2017-03-24T06:20:57.236Z,10.3
2017-03-24T06:22:11.468Z,10.32
2017-03-24T06:23:24.973Z,10.32
2017-03-24T06:24:38.423Z,10.3
2017-03-24T06:25:52.019Z,10.3
2017-03-24T06:27:05.825Z,10.29
2017-03-24T06:28:19.732Z,10.29
2017-03-24T06:29:33.688Z,10.29
2017-03-24T06:30:48.154Z,10.3
2017-03-24T06:32:04.355Z,10.33
2017-03-24T06:33:27.137Z,10.33
2017-03-24T06:34:41.550Z,10.32
2017-03-24T06:35:54.994Z,10.31
2017-03-24T06:37:08.422Z,10.31
2017-03-24T06:38:21.977Z,10.3
2017-03-24T06:39:35.701Z,10.29
2017-03-24T06:40:49.680Z,10.29
2017-03-24T06:42:03.693Z,10.29
2017-03-24T06:43:17.256Z,10.31
2017-03-24T06:44:30.694Z,10.32
2017-03-24T06:45:44.542Z,10.32
2017-03-24T06:46:58.492Z,10.32
2017-03-24T06:48:12.630Z,10.33
2017-03-24T06:49:26.375Z,10.3
2017-03-24T06:50:39.874Z,10.31
2017-03-24T06:51:53.284Z,10.34
2017-03-24T06:53:07.285Z,10.38
2017-03-24T06:54:20.730Z,10.42
2017-03-24T06:55:34.241Z,10.44
2017-03-24T06:56:47.697Z,10.41
2017-03-24T06:58:01.386Z,10.39
2017-03-24T06:59:15.181Z,10.34
2017-03-24T07:00:29.052Z,10.3
2017-03-24T07:01:42.444Z,10.29
2017-03-24T07:03:10.816Z,10.31
2017-03-24T07:04:24.252Z,10.34
2017-03-24T07:05:38.090Z,10.37
2017-03-24T07:06:51.901Z,10.38
2017-03-24T07:08:18.840Z,10.44
2017-03-24T07:09:32.478Z,10.5
2017-03-24T07:10:45.962Z,10.54
2017-03-24T07:11:59.359Z,10.57
2017-03-24T07:13:12.861Z,10.59
2017-03-24T07:14:27.113Z,10.59
2017-03-24T07:15:49.902Z,10.59
2017-03-24T07:17:03.283Z,10.63
2017-03-24T07:18:16.744Z,10.68
2017-03-24T07:19:30.234Z,10.71
2017-03-24T07:20:43.953Z,10.74
2017-03-24T07:21:57.348Z,10.76
2017-03-24T07:23:10.793Z,10.78
2017-03-24T07:24:24.278Z,10.74
2017-03-24T07:25:38.168Z,10.67
2017-03-24T07:26:51.577Z,10.64
2017-03-24T07:28:05.745Z,10.64
2017-03-24T07:29:19.188Z,10.62
2017-03-24T07:30:46.926Z,10.62
2017-03-24T07:32:02.150Z,10.68
2017-03-24T07:33:15.483Z,10.73
2017-03-24T07:34:30.993Z,10.79
2017-03-24T07:35:44.781Z,10.83
2017-03-24T07:36:58.306Z,10.88
2017-03-24T07:38:11.856Z,10.92
2017-03-24T07:39:43.731Z,10.96
2017-03-24T07:40:57.511Z,10.96
2017-03-24T07:42:11.275Z,10.98
2017-03-24T07:43:25.489Z,11
2017-03-24T07:44:38.910Z,11.04
2017-03-24T07:45:53.413Z,11.08
2017-03-24T07:47:07.054Z,11.09
2017-03-24T07:48:20.635Z,11.11
2017-03-24T07:49:36.204Z,11.08
2017-03-24T07:50:49.759Z,11.07
2017-03-24T07:52:03.556Z,11.05
2017-03-24T07:53:17.688Z,10.94
2017-03-24T07:54:31.336Z,10.88
2017-03-24T07:55:45.183Z,10.92
2017-03-24T07:56:58.679Z,10.95
2017-03-24T07:58:12.175Z,10.95
2017-03-24T07:59:25.832Z,10.91
2017-03-24T08:00:39.357Z,10.89
2017-03-24T08:01:54.147Z,10.87
2017-03-24T08:03:10.327Z,10.85
2017-03-24T08:04:23.811Z,10.87
2017-03-24T08:05:38.590Z,10.87
2017-03-24T08:06:52.165Z,10.9
2017-03-24T08:08:05.891Z,10.92
2017-03-24T08:09:19.413Z,10.92
2017-03-24T08:10:33.224Z,10.9
2017-03-24T08:11:47.014Z,10.9
2017-03-24T08:13:00.499Z,10.94
2017-03-24T08:14:14.233Z,10.96
2017-03-24T08:15:27.901Z,11
2017-03-24T08:16:41.319Z,11
2017-03-24T08:17:55.155Z,10.99
2017-03-24T08:19:10.362Z,10.96
2017-03-24T08:20:23.951Z,10.92
2017-03-24T08:21:38.109Z,10.92
2017-03-24T08:22:51.827Z,10.98
2017-03-24T08:24:05.610Z,10.99
2017-03-24T08:25:36.544Z,10.99
2017-03-24T08:26:50.645Z,10.99
2017-03-24T08:28:04.031Z,10.99
2017-03-24T08:29:17.903Z,11.05
2017-03-24T08:30:31.396Z,11.09
2017-03-24T08:31:46.899Z,11.16
2017-03-24T08:33:00.699Z,11.19
2017-03-24T08:34:14.391Z,11.23
2017-03-24T08:35:27.888Z,11.27
2017-03-24T08:36:41.835Z,11.34
2017-03-24T08:37:55.380Z,11.34
2017-03-24T08:39:09.362Z,11.32
2017-03-24T08:40:22.942Z,11.34
2017-03-24T08:41:47.346Z,11.36
2017-03-24T08:43:03.565Z,11.38
2017-03-24T08:44:17.181Z,11.35
2017-03-24T08:45:31.274Z,11.3
2017-03-24T08:46:44.914Z,11.27
2017-03-24T08:47:58.497Z,11.23
2017-03-24T08:49:12.380Z,11.22
2017-03-24T08:50:25.784Z,11.22
2017-03-24T08:51:39.295Z,11.22
2017-03-24T08:52:52.759Z,11.23
2017-03-24T08:54:06.270Z,11.24
2017-03-24T08:55:20.131Z,11.28
2017-03-24T08:56:33.721Z,11.34
2017-03-24T08:57:47.193Z,11.39
2017-03-24T08:59:00.999Z,11.42
2017-03-24T09:00:14.427Z,11.35
2017-03-24T09:01:28.418Z,11.27
2017-03-24T09:02:41.755Z,11.24
2017-03-24T09:03:55.245Z,11.21
2017-03-24T09:05:09.076Z,11.19
2017-03-24T09:06:24.749Z,11.26
2017-03-24T09:07:38.413Z,11.34
2017-03-24T09:08:51.904Z,11.44
2017-03-24T09:10:05.613Z,11.57
2017-03-24T09:11:19.113Z,11.68
2017-03-24T09:12:32.472Z,11.8
2017-03-24T09:13:46.650Z,11.93
2017-03-24T09:15:00.309Z,12.05
2017-03-24T09:16:13.866Z,12.12
2017-03-24T09:17:27.916Z,12.16
2017-03-24T09:18:41.723Z,12.18
2017-03-24T09:19:55.433Z,12.26
2017-03-24T09:21:09.130Z,12.31
2017-03-24T09:22:22.467Z,12.33
2017-03-24T09:23:36.971Z,12.39
2017-03-24T09:24:50.411Z,12.47
2017-03-24T09:26:04.131Z,12.57
2017-03-24T09:27:18.776Z,12.63
2017-03-24T09:28:32.381Z,12.72
2017-03-24T09:29:45.739Z,12.79
2017-03-24T09:31:08.296Z,12.88
2017-03-24T09:32:21.664Z,12.93
2017-03-24T09:33:35.138Z,12.95
2017-03-24T09:34:48.518Z,12.94
2017-03-24T09:36:02.235Z,12.96
2017-03-24T09:37:15.591Z,12.98
2017-03-24T09:38:29.338Z,12.92
2017-03-24T09:39:42.709Z,12.79
2017-03-24T09:40:56.191Z,12.78
2017-03-24T09:42:09.584Z,12.79
2017-03-24T09:43:23.004Z,12.79
2017-03-24T09:44:36.304Z,12.76
2017-03-24T09:45:50.365Z,12.83
2017-03-24T09:47:03.676Z,12.89
2017-03-24T09:48:17.148Z,12.98
2017-03-24T09:49:30.436Z,13.12
2017-03-24T09:50:43.921Z,13.26
2017-03-24T09:51:57.268Z,13.37
2017-03-24T09:53:10.805Z,13.4
2017-03-24T09:54:24.597Z,13.46
2017-03-24T09:55:38.098Z,13.51
2017-03-24T09:56:51.766Z,13.5
2017-03-24T09:58:05.352Z,13.46
2017-03-24T09:59:18.933Z,13.4
2017-03-24T10:00:48.351Z,13.35
2017-03-24T10:02:02.053Z,13.41
2017-03-24T10:03:15.997Z,13.54
2017-03-24T10:04:29.489Z,13.73
2017-03-24T10:05:43.156Z,13.82
2017-03-24T10:06:56.645Z,13.89
2017-03-24T10:08:10.466Z,13.95
2017-03-24T10:09:23.917Z,13.87
2017-03-24T10:10:37.415Z,13.79
2017-03-24T10:11:50.804Z,13.75
2017-03-24T10:13:04.616Z,13.68
2017-03-24T10:14:18.331Z,13.63
2017-03-24T10:15:32.268Z,13.66
2017-03-24T10:16:46.016Z,13.76
2017-03-24T10:18:00.078Z,13.84
2017-03-24T10:19:13.580Z,13.98
2017-03-24T10:20:27.354Z,14.18
2017-03-24T10:21:41.145Z,14.27
2017-03-24T10:22:57.305Z,14.29
2017-03-24T10:24:10.711Z,14.35
2017-03-24T10:25:24.871Z,14.39
2017-03-24T10:26:38.826Z,14.32
2017-03-24T10:27:52.769Z,14.27
2017-03-24T10:29:06.136Z,14.18
2017-03-24T10:30:19.625Z,14.1
2017-03-24T10:31:33.314Z,14.05
2017-03-24T10:32:47.111Z,13.96
2017-03-24T10:34:00.755Z,13.9
2017-03-24T10:35:14.568Z,13.83
2017-03-24T10:36:27.957Z,13.76
2017-03-24T10:37:41.522Z,13.63
2017-03-24T10:38:55.247Z,13.59
2017-03-24T10:40:09.122Z,13.59
2017-03-24T10:41:22.552Z,13.61
2017-03-24T10:42:36.095Z,13.61
2017-03-24T10:43:49.574Z,13.61
2017-03-24T10:45:03.435Z,13.58
2017-03-24T10:46:16.862Z,13.58
2017-03-24T10:47:30.441Z,13.49
2017-03-24T10:48:44.093Z,13.35
2017-03-24T10:49:57.666Z,13.23
2017-03-24T10:51:11.359Z,13.13
2017-03-24T10:52:24.897Z,13.08
2017-03-24T10:53:38.598Z,13.12
2017-03-24T10:54:52.157Z,13.21
2017-03-24T10:56:05.506Z,13.33
2017-03-24T10:57:19.249Z,13.42
2017-03-24T10:58:32.585Z,13.52
2017-03-24T10:59:46.452Z,13.63
2017-03-24T11:00:59.910Z,13.71
2017-03-24T11:02:13.831Z,13.77
2017-03-24T11:03:27.512Z,13.9
2017-03-24T11:04:41.462Z,13.96
2017-03-24T11:05:55.646Z,14.1
2017-03-24T11:07:09.776Z,14.22
2017-03-24T11:08:23.200Z,14.28
2017-03-24T11:09:37.188Z,14.38
2017-03-24T11:10:50.743Z,14.5
2017-03-24T11:12:04.757Z,14.63
2017-03-24T11:13:18.802Z,14.77
2017-03-24T11:14:32.306Z,14.87
2017-03-24T11:15:46.078Z,14.99
2017-03-24T11:17:00.099Z,15.11
2017-03-24T11:18:13.615Z,15.19
2017-03-24T11:19:28.140Z,15.29
2017-03-24T11:20:41.569Z,15.37
2017-03-24T11:21:55.374Z,15.47
2017-03-24T11:23:08.832Z,15.51
2017-03-24T11:24:22.666Z,15.55
2017-03-24T11:25:36.111Z,15.58
2017-03-24T11:26:49.786Z,15.58
2017-03-24T11:28:04.169Z,15.64
2017-03-24T11:29:17.766Z,15.64
2017-03-24T11:30:31.118Z,15.55
2017-03-24T11:31:44.762Z,15.45
2017-03-24T11:32:58.446Z,15.36
2017-03-24T11:34:12.387Z,15.31
2017-03-24T11:35:25.857Z,15.34
2017-03-24T11:36:39.806Z,15.41
2017-03-24T11:37:53.358Z,15.49
2017-03-24T11:39:09.460Z,15.56
2017-03-24T11:40:23.238Z,15.66
2017-03-24T11:41:36.845Z,15.76
2017-03-24T11:42:50.282Z,15.85
2017-03-24T11:44:03.930Z,15.91
2017-03-24T11:45:17.564Z,15.87
2017-03-24T11:46:31.528Z,15.81
2017-03-24T11:47:45.116Z,15.75
2017-03-24T11:48:59.303Z,15.66
2017-03-24T11:50:13.006Z,15.62
2017-03-24T11:51:26.497Z,15.62
2017-03-24T11:52:40.318Z,15.59
2017-03-24T11:53:53.912Z,15.55
2017-03-24T11:55:07.605Z,15.48
2017-03-24T11:56:21.181Z,15.36
2017-03-24T11:57:35.599Z,15.28
2017-03-24T11:58:49.745Z,15.33
2017-03-24T12:00:03.185Z,15.38
2017-03-24T12:01:16.932Z,15.38
2017-03-24T12:02:30.394Z,15.39
2017-03-24T12:03:43.893Z,15.46
2017-03-24T12:04:57.613Z,15.54
2017-03-24T12:06:11.153Z,15.63
2017-03-24T12:07:24.524Z,15.67
2017-03-24T12:08:38.028Z,15.69
2017-03-24T12:09:51.524Z,15.63
2017-03-24T12:11:05.952Z,15.58
2017-03-24T12:12:19.411Z,15.51
2017-03-24T12:13:33.042Z,15.43
2017-03-24T12:14:47.110Z,15.44
2017-03-24T12:16:00.619Z,15.47
2017-03-24T12:17:14.333Z,15.46
2017-03-24T12:18:27.871Z,15.41
2017-03-24T12:19:42.037Z,15.33
2017-03-24T12:20:55.600Z,15.25
2017-03-24T12:22:09.043Z,15.2
2017-03-24T12:23:22.954Z,15.18
2017-03-24T12:24:36.720Z,15.14
2017-03-24T12:26:03.706Z,15.12
2017-03-24T12:27:17.271Z,15.11
2017-03-24T12:28:30.899Z,15.17
2017-03-24T12:29:45.456Z,15.26
2017-03-24T12:30:59.370Z,15.36
2017-03-24T12:32:13.610Z,15.48
2017-03-24T12:33:27.466Z,15.56
2017-03-24T12:34:41.439Z,15.57
2017-03-24T12:35:55.394Z,15.6
2017-03-24T12:37:08.810Z,15.61
2017-03-24T12:38:22.944Z,15.67
2017-03-24T12:39:36.721Z,15.75
2017-03-24T12:40:50.984Z,15.83
2017-03-24T12:42:04.470Z,15.9
2017-03-24T12:43:18.394Z,16
2017-03-24T12:44:31.877Z,16.03
2017-03-24T12:45:45.689Z,16.13
2017-03-24T12:46:59.060Z,16.23
2017-03-24T12:48:12.612Z,16.34
2017-03-24T12:49:26.063Z,16.38
2017-03-24T12:50:40.028Z,16.36
2017-03-24T12:51:54.519Z,16.36
2017-03-24T12:53:08.259Z,16.27
2017-03-24T12:54:22.058Z,16.18
2017-03-24T12:55:37.924Z,16.12
2017-03-24T12:56:51.423Z,16.06
2017-03-24T12:58:05.775Z,15.96
2017-03-24T12:59:19.266Z,15.91
2017-03-24T13:00:33.073Z,15.92
2017-03-24T13:01:47.131Z,15.95
2017-03-24T13:03:01.325Z,15.87
2017-03-24T13:04:15.667Z,15.8
2017-03-24T13:05:29.408Z,15.77
2017-03-24T13:06:42.865Z,15.74
2017-03-24T13:07:56.474Z,15.75
2017-03-24T13:09:09.928Z,15.79
2017-03-24T13:10:24.210Z,15.82
2017-03-24T13:11:37.695Z,15.8
2017-03-24T13:12:51.260Z,15.81
2017-03-24T13:14:04.752Z,15.79
2017-03-24T13:15:18.909Z,15.77
2017-03-24T13:16:32.983Z,15.75
2017-03-24T13:17:46.583Z,15.76
2017-03-24T13:19:00.678Z,15.78
2017-03-24T13:20:14.553Z,15.79
2017-03-24T13:21:28.050Z,15.81
2017-03-24T13:22:42.089Z,15.84
2017-03-24T13:23:56.654Z,15.85
2017-03-24T13:25:10.763Z,15.86
2017-03-24T13:26:24.616Z,15.84
2017-03-24T13:27:38.533Z,15.88
2017-03-24T13:28:52.205Z,15.92
2017-03-24T13:30:06.169Z,15.96
2017-03-24T13:31:20.879Z,15.97
2017-03-24T13:32:35.165Z,15.99
2017-03-24T13:33:48.629Z,15.97
2017-03-24T13:35:02.590Z,15.93
2017-03-24T13:36:16.195Z,15.88
2017-03-24T13:37:30.130Z,15.81
2017-03-24T13:38:44.595Z,15.78
2017-03-24T13:39:58.286Z,15.79
2017-03-24T13:41:12.321Z,15.75
2017-03-24T13:42:25.919Z,15.69
2017-03-24T13:43:39.906Z,15.62
2017-03-24T13:44:53.818Z,15.62
2017-03-24T13:46:07.183Z,15.64
2017-03-24T13:47:21.432Z,15.69
2017-03-24T13:48:34.846Z,15.74
2017-03-24T13:49:48.419Z,15.76
2017-03-24T13:51:01.806Z,15.78
2017-03-24T13:52:15.453Z,15.79
2017-03-24T13:53:29.712Z,15.81
2017-03-24T13:54:43.308Z,15.85
2017-03-24T13:55:59.867Z,15.92
2017-03-24T13:57:13.302Z,15.97
2017-03-24T13:58:26.808Z,15.99
2017-03-24T13:59:40.780Z,16.03
2017-03-24T14:00:54.460Z,16.06
2017-03-24T14:02:07.967Z,16.04
2017-03-24T14:03:21.473Z,16.02
2017-03-24T14:04:35.624Z,16.03
2017-03-24T14:05:49.547Z,16.02
2017-03-24T14:07:03.048Z,16.01
2017-03-24T14:08:16.466Z,16.01
2017-03-24T14:09:30.047Z,16.04
2017-03-24T14:10:43.520Z,16.05
2017-03-24T14:12:00.236Z,16.07
2017-03-24T14:13:13.775Z,16.09
2017-03-24T14:14:40.585Z,16.07
2017-03-24T14:15:53.992Z,16.03
2017-03-24T14:17:07.931Z,15.98
2017-03-24T14:18:21.714Z,15.96
2017-03-24T14:19:35.354Z,15.91
2017-03-24T14:20:48.738Z,15.9
2017-03-24T14:22:16.499Z,15.9
2017-03-24T14:23:30.436Z,15.92
2017-03-24T14:24:44.532Z,15.92
2017-03-24T14:25:57.828Z,15.93
2017-03-24T14:27:11.268Z,15.95
2017-03-24T14:28:24.692Z,16.01
2017-03-24T14:29:38.688Z,16.09
2017-03-24T14:30:52.040Z,16.13
2017-03-24T14:32:05.539Z,16.15
2017-03-24T14:33:19.186Z,16.14
2017-03-24T14:34:33.096Z,16.14
2017-03-24T14:35:47.142Z,16.15
2017-03-24T14:37:00.713Z,16.18
2017-03-24T14:38:14.177Z,16.23
2017-03-24T14:39:28.797Z,16.25
2017-03-24T14:40:42.624Z,16.23
2017-03-24T14:41:57.174Z,16.2
2017-03-24T14:43:10.687Z,16.22
2017-03-24T14:44:24.850Z,16.25
2017-03-24T14:45:39.428Z,16.28
2017-03-24T14:47:59.263Z,16.3
2017-03-24T14:49:19.554Z,16.39
2017-03-24T14:50:33.754Z,16.41
2017-03-24T14:52:02.776Z,16.37
2017-03-24T14:53:16.250Z,16.36
2017-03-24T14:54:29.831Z,16.35
2017-03-24T14:55:43.638Z,16.34
2017-03-24T14:57:18.267Z,16.3
2017-03-24T14:58:40.973Z,16.27
2017-03-24T14:59:54.395Z,16.25
2017-03-24T15:01:08.508Z,16.25
2017-03-24T15:02:22.368Z,16.29
2017-03-24T15:03:36.283Z,16.32
2017-03-24T15:04:50.056Z,16.33
2017-03-24T15:06:19.207Z,16.3
2017-03-24T15:07:32.993Z,16.3
2017-03-24T15:08:46.952Z,16.33
2017-03-24T15:10:01.388Z,16.33
2017-03-24T15:11:15.008Z,16.35
2017-03-24T15:12:28.536Z,16.37
2017-03-24T15:14:07.707Z,16.37
2017-03-24T15:15:22.136Z,16.44
2017-03-24T15:16:36.101Z,16.49
2017-03-24T15:17:50.006Z,16.52
2017-03-24T15:19:03.535Z,16.57
2017-03-24T15:20:17.191Z,16.58
2017-03-24T15:21:30.993Z,16.58
2017-03-24T15:22:44.528Z,16.59
2017-03-24T15:23:58.699Z,16.58
2017-03-24T15:25:13.036Z,16.58
2017-03-24T15:26:26.574Z,16.54
2017-03-24T15:27:40.063Z,16.52
2017-03-24T15:28:53.518Z,16.51
2017-03-24T15:30:07.037Z,16.5
2017-03-24T15:31:23.799Z,16.54
2017-03-24T15:32:37.380Z,16.6
2017-03-24T15:33:51.100Z,16.65
2017-03-24T15:35:04.790Z,16.67
2017-03-24T15:36:18.646Z,16.68
2017-03-24T15:37:32.204Z,16.65
2017-03-24T15:38:45.749Z,16.61
2017-03-24T15:39:59.698Z,16.59
2017-03-24T15:41:13.426Z,16.56
2017-03-24T15:42:27.039Z,16.54
2017-03-24T15:43:40.474Z,16.52
2017-03-24T15:44:54.107Z,16.5
2017-03-24T15:46:07.877Z,16.45
2017-03-24T15:47:21.560Z,16.4
2017-03-24T15:48:35.228Z,16.39
2017-03-24T15:49:51.126Z,16.39
2017-03-24T15:51:04.587Z,16.38
2017-03-24T15:52:24.125Z,16.37
2017-03-24T15:53:42.924Z,16.37
2017-03-24T15:54:56.476Z,16.37
2017-03-24T15:56:10.492Z,16.37
2017-03-24T15:57:24.458Z,16.38
2017-03-24T15:58:38.755Z,16.35
2017-03-24T15:59:52.396Z,16.33
2017-03-24T16:01:07.087Z,16.28
2017-03-24T16:02:20.867Z,16.25